Huvudsida
METAR-TAF:

METAR-TAF

Flygplatser :

Larnacas internationella flygplats

Larnaca, Cypern

latitud: 34-53N, longitud: 033-38E, höjd: 2 m

Aktuellt väderrapport

Denna rapport gjordes för 34 minuter sedan, klockan 07:00 UTC
Vind 6 kt från ost/sydost
Temperatur 32°C
Fuktighet 24%
Tryck 1005 hPa
Sikt 10 km eller mer
Inga moln under 1 500 m eller inga cumulonimbus

METAR: LCLK 150700Z 12006KT CAVOK 32/09 Q1005 NOSIG

Tid: 10:34 (07:34 UTC)

Väderprognos

Denna rapport gjordes för 2 timmar och 4 minuter sedan, klockan 05:30 UTC
Prognos gäller från 15 kl. 06 UTC till 16 kl. 06 UTC
Vind 9 kt från sydost
Blir
från 15 kl. 09 UTC till 15 kl. 12 UTC
Vind 19 kt från sydväst
Blir
från 15 kl. 18 UTC till 15 kl. 21 UTC
Vind 9 kt från nord/nordväst

TAF: LCLK 150530Z 1506/1606 14009KT BECMG 1509/1512 22019KT BECMG 1518/1521 33009KT

Aktuella väderrapporter och prognoser från 4000 flygplatser (METAR- och TAF-rapporter).

De tillgängliga stationerna syns som gula och röda prickar på kartan.

För musen över prickarna för att se namnen på stationerna.

Klicka sedan för att få väderrapporter och prognoser.

För att ändra kartan: Klicka på de gröna knapparna med ett svart kors på för att zooma in; den gröna knappen med ett streck på för att zooma ut; eller på de gröna pilarna för angränsande kartor.


METAR-TAF: